Hampton, VA

02:56 EDT le 26 octobre 2014 (GMT -0400)
Langley Air Force Base | Change Station
CLOSE
Current Station
Aéroport
Location: Langley AFB,
Altitude: 10 ft
Stations météo à proximité

Alt. 10 ft 37.08 °N, 76.36 °W | Updated 58 minutes ago

Ciel dégagé
Ciel dégagé
60 ° F
Paraît 60 ° F
N
12
Vent Variable Vent de OSO

Aujourd'hui
Haut(e) -- | Bas -- ° F
--% Risque de précip.
Hier
Haut(e) -- | Bas -- ° F
Precip. -- pouce
7:23 AM 6:14 PM
Lune montante, 6% visible
Pression 29.76 pouce
Visibilité 10.0 Miles terrestres
Nuages Ciel dégagé
Point de rosée 46 ° F
Humidité 61%
Précipitations 0.00 pouce
Profondeur de la couche neigeuse Non disponible.
UV 0 sur 12
Pollen 1.40 sur 12
Ozone Bon
PM2.5 Bon
Flu Activity Sporadic
METAR KLFI 260558Z AUTO 24010KT 10SM CLR 15/08 A2974 RMK AO2 SLP078 T01530077 10165 20152 57016 $

More Conditions Fewer Conditions

Pression 29.76 pouce
Visibilité 10.0 Miles terrestres
Nuages Ciel dégagé
Point de rosée 46 ° F
Humidité 61%
Précipitations 0.00 pouce
Profondeur de la couche neigeuse Non disponible.
UV 0 sur 12
Pollen 1.40 sur 12
Ozone Bon
PM2.5 Bon
Flu Activity Sporadic
METAR KLFI 260558Z AUTO 24010KT 10SM CLR 15/08 A2974 RMK AO2 SLP078 T01530077 10165 20152 57016 $

More Conditions Fewer Conditions

10-Day Weather Forecast

Almanac

Astronomie

Oct. 26, 2014 Lever Coucher
Temps réel 07:23 EDT 18:14 EDT
Crépuscule civil 06:57 EDT 18:41 EDT
Crépuscule nautique 06:26 EDT 19:11 EDT
Crépuscule astronomique 05:56 EDT 19:41 EDT
Lune 09:57 EDT 20:26 EDT
Durée de lumière visible 11h 44m
Longueur du jour
10h 50m
Tomorrow will be 2m 10s shorter.
Lune montante, 6% of the Moon is Illuminated
Aujourd'hui
Lune montante
Oct 30
Premier quartier
Nov 6
Pleine lune
Nov 14
Dernier quartier
Nov 22
Nouveau

Extrêmes aujourd'hui

State Highs State Lows

Community

WunderPhotos

Upload Photos

1,765,117 Photos téléchargées !

Nearby

Qualité de l'air

  Qualité de l'air Indice de la qualité de l'air Polluant
Hier Bon
OZONE
Hier Bon
PM2.5
Actuel Bon
PM2.5
Actuel Bon
OZONE
dimanche Bon
PM2.5
lundi Bon
PM2.5

Épaisseur de neige

Station Depth Altitude
Pas de nouvelles chutes de neige

Activité sismique

Ville Distance Mag. Time & Date
No recent earthquake activity has been reported nearby.
Minimum magnitude displayed is 2.5.

Températures des eaux côtières

Lieu Température
Aucun rapport de station

Stations météo à proximité